Time;durP1;ratioP1;P1;durP2;ratioP2;P2;SDS_P1;SDS_P2;PMS_P1;PMS_P2;Temp;Humidity;BMP_temperature;BMP_pressure;BME280_temperature;BME280_humidity;BME280_pressure;Samples;Min_cycle;Max_cycle;Signal;HPM_P1;HPM_P2
2021/08/03 00:01:39;;;;;;;;;;;;;;;17.24;76.72;100036.78;10358632;28;20032;-57
2021/08/03 00:06:45;;;;;;;;;;;;;;;17.20;76.71;100032.75;10355707;28;19925;-55
2021/08/03 00:11:47;;;;;;;;;;;;;;;17.14;77.04;100018.13;10361896;28;20494;-55
2021/08/03 00:16:48;;;;;;;;;;;;;;;17.31;76.44;100027.00;10369720;28;20656;-52
2021/08/03 00:21:49;;;;;;;;;;;;;;;17.28;76.21;100025.50;10373776;28;20028;-54
2021/08/03 00:26:51;;;;;;;;;;;;;;;17.35;76.21;100022.09;10363592;28;20052;-55
2021/08/03 00:31:53;;;;;;;;;;;;;;;17.40;75.78;100027.78;10372642;28;20333;-59
2021/08/03 00:36:54;;;;;;;;;;;;;;;17.37;75.83;100034.38;10369473;28;20092;-53
2021/08/03 00:42:00;;;;;;;;;;;;;;;17.37;75.72;100034.38;10375974;28;20048;-55
2021/08/03 00:47:01;;;;;;;;;;;;;;;17.43;75.67;100035.50;10369112;28;20023;-54
2021/08/03 00:52:03;;;;;;;;;;;;;;;17.39;76.03;100031.53;10366264;28;19961;-56
2021/08/03 00:57:05;;;;;;;;;;;;;;;17.37;76.06;100033.53;10362782;28;19925;-53
2021/08/03 01:02:07;;;;;;;;;;;;;;;17.31;76.55;100038.59;10352543;28;20016;-57
2021/08/03 01:07:27;;;;;;;;;;;;;;;17.28;76.91;100036.25;10368236;28;19929;-54
2021/08/03 01:12:32;;;;;;;;;;;;;;;17.25;77.26;100035.75;10364333;28;19956;-56
2021/08/03 01:17:41;;;;;;;;;;;;;;;17.26;77.30;100037.44;10364650;28;20382;-57
2021/08/03 01:23:01;;;;;;;;;;;;;;;17.24;77.30;100031.41;10369259;28;20012;-53
2021/08/03 01:28:14;;;;;;;;;;;;;;;17.19;77.60;100028.38;10375243;28;19975;-52
2021/08/03 01:33:19;;;;;;;;;;;;;;;17.18;77.74;100027.53;10373744;28;20017;-58
2021/08/03 01:38:22;;;;;;;;;;;;;;;17.16;77.69;100034.09;10368404;28;20015;-54
2021/08/03 01:43:23;;;;;;;;;;;;;;;17.16;77.36;100032.25;10369317;28;19968;-57
2021/08/03 01:48:25;;;;;;;;;;;;;;;17.14;77.80;100023.50;10370626;28;20024;-58
2021/08/03 01:53:27;;;;;;;;;;;;;;;17.14;77.59;100018.97;10360764;28;20417;-59
2021/08/03 01:58:29;;;;;;;;;;;;;;;17.13;77.45;100021.84;10368319;28;19925;-56
2021/08/03 02:03:31;;;;;;;;;;;;;;;17.11;77.51;100015.78;10362213;28;19968;-57
2021/08/03 02:08:35;;;;;;;;;;;;;;;17.13;77.76;100021.84;10361342;28;20474;-58
2021/08/03 02:13:36;;;;;;;;;;;;;;;17.13;78.07;100022.66;10367734;28;20023;-58
2021/08/03 02:18:38;;;;;;;;;;;;;;;17.08;77.76;100021.50;10367957;28;19991;-54
2021/08/03 02:23:41;;;;;;;;;;;;;;;17.05;77.70;100024.53;10353926;28;20032;-55
2021/08/03 02:28:43;;;;;;;;;;;;;;;17.03;77.65;100013.13;10354902;28;20341;-55
2021/08/03 02:33:48;;;;;;;;;;;;;;;16.75;77.45;99970.47;10349189;28;20143;-56
2021/08/03 02:38:53;;;;;;;;;;;;;;;16.94;77.30;100005.06;10351689;28;19925;-56
2021/08/03 02:43:54;;;;;;;;;;;;;;;16.90;77.33;100003.75;10348538;28;20020;-56
2021/08/03 02:49:04;;;;;;;;;;;;;;;16.90;77.73;99990.31;10362345;28;20048;-54
2021/08/03 02:54:11;;;;;;;;;;;;;;;16.91;77.76;100000.03;10364705;28;20461;-58
2021/08/03 02:59:13;;;;;;;;;;;;;;;16.93;78.24;99992.66;10362894;28;20448;-54
2021/08/03 03:04:19;;;;;;;;;;;;;;;16.93;78.24;99995.34;10369292;28;19932;-55
2021/08/03 03:09:22;;;;;;;;;;;;;;;16.95;78.14;99993.31;10367577;28;19964;-56
2021/08/03 03:14:26;;;;;;;;;;;;;;;16.92;78.17;99992.81;10366975;28;19957;-55
2021/08/03 03:19:33;;;;;;;;;;;;;;;16.90;77.98;99995.69;10368665;28;19970;-55
2021/08/03 03:24:36;;;;;;;;;;;;;;;16.88;77.99;99983.41;10362684;28;19986;-55
2021/08/03 03:29:38;;;;;;;;;;;;;;;16.86;78.11;99988.94;10366718;28;20015;-57
2021/08/03 03:34:41;;;;;;;;;;;;;;;16.81;78.23;99987.75;10360643;28;20055;-57
2021/08/03 03:39:42;;;;;;;;;;;;;;;16.76;78.62;99989.09;10359797;28;19929;-57
2021/08/03 03:44:44;;;;;;;;;;;;;;;16.75;78.62;99983.91;10360237;28;19979;-53
2021/08/03 03:49:47;;;;;;;;;;;;;;;16.76;78.51;99974.84;10362030;28;19965;-56
2021/08/03 03:54:49;;;;;;;;;;;;;;;16.75;78.11;99983.91;10370955;28;20692;-55
2021/08/03 03:59:54;;;;;;;;;;;;;;;16.76;78.14;99982.91;10367810;28;19957;-56
2021/08/03 04:04:57;;;;;;;;;;;;;;;16.79;77.89;99977.19;10348582;28;20216;-54
2021/08/03 04:10:06;;;;;;;;;;;;;;;16.79;77.53;99979.88;10375934;28;19929;-57
2021/08/03 04:15:08;;;;;;;;;;;;;;;16.81;77.41;99974.31;10379193;28;19961;-53
2021/08/03 04:20:10;;;;;;;;;;;;;;;16.84;77.18;99976.66;10372509;28;19963;-52
2021/08/03 04:25:11;;;;;;;;;;;;;;;16.84;77.28;99969.44;10364999;28;20449;-54
2021/08/03 04:30:13;;;;;;;;;;;;;;;16.86;77.14;99966.56;10375169;28;19965;-57
2021/08/03 04:35:15;;;;;;;;;;;;;;;16.88;76.53;99970.81;10369993;28;20024;-54
2021/08/03 04:40:17;;;;;;;;;;;;;;;16.93;76.33;99979.22;10367212;28;19988;-55
2021/08/03 04:45:19;;;;;;;;;;;;;;;16.96;76.31;99978.00;10370372;28;20340;-55
2021/08/03 04:50:24;;;;;;;;;;;;;;;16.95;76.21;99977.16;10371469;28;19968;-52
2021/08/03 04:55:25;;;;;;;;;;;;;;;16.91;76.09;99972.31;10370495;28;21258;-58
2021/08/03 05:00:27;;;;;;;;;;;;;;;16.89;76.34;99966.25;10365678;28;19961;-55
2021/08/03 05:05:28;;;;;;;;;;;;;;;16.98;76.41;99969.75;10345951;28;20014;-56
2021/08/03 05:10:29;;;;;;;;;;;;;;;17.02;76.20;99971.09;10342151;28;19957;-56
2021/08/03 05:15:31;;;;;;;;;;;;;;;17.00;75.65;99954.31;10347724;28;19935;-52
2021/08/03 05:20:34;;;;;;;;;;;;;;;16.94;76.23;99961.22;10342526;28;19925;-57
2021/08/03 05:25:36;;;;;;;;;;;;;;;16.98;76.04;99953.63;10345792;28;20374;-58
2021/08/03 05:30:37;;;;;;;;;;;;;;;17.01;76.27;99954.16;10341648;28;20027;-57
2021/08/03 05:35:39;;;;;;;;;;;;;;;17.08;76.00;99957.81;10347133;28;20019;-54
2021/08/03 05:40:40;;;;;;;;;;;;;;;17.13;75.80;99952.75;10346304;28;19934;-57
2021/08/03 05:45:41;;;;;;;;;;;;;;;17.20;75.52;99950.19;10339551;28;20019;-56
2021/08/03 05:50:43;;;;;;;;;;;;;;;17.26;76.08;99952.22;10329616;28;19925;-56
2021/08/03 05:55:44;;;;;;;;;;;;;;;17.31;76.46;99955.19;10341898;28;20067;-55
2021/08/03 06:00:46;;;;;;;;;;;;;;;17.31;76.33;99949.81;10342423;28;20099;-55
2021/08/03 06:05:47;;;;;;;;;;;;;;;17.38;76.68;99954.50;10326176;28;19933;-58
2021/08/03 06:10:51;;;;;;;;;;;;;;;17.56;76.35;99949.69;10340173;28;20025;-60
2021/08/03 06:15:53;;;;;;;;;;;;;;;17.65;75.29;99951.34;10326838;28;20012;-59
2021/08/03 06:20:55;;;;;;;;;;;;;;;17.77;75.37;99950.94;10346077;28;20120;-59
2021/08/03 06:25:58;;;;;;;;;;;;;;;17.90;75.19;99945.00;10336274;28;19983;-56
2021/08/03 06:30:59;;;;;;;;;;;;;;;17.91;74.01;99939.44;10341021;28;19933;-59
2021/08/03 06:36:01;;;;;;;;;;;;;;;17.94;74.35;99941.78;10342385;28;19925;-57
2021/08/03 06:41:04;;;;;;;;;;;;;;;18.13;73.13;99939.59;10339538;28;19925;-58
2021/08/03 06:46:09;;;;;;;;;;;;;;;18.35;72.20;99936.03;10338351;28;20018;-58
2021/08/03 06:51:13;;;;;;;;;;;;;;;18.52;71.98;99941.28;10343445;28;19940;-57
2021/08/03 06:56:21;;;;;;;;;;;;;;;18.62;71.18;99947.25;10342378;28;20023;-55
2021/08/03 07:01:30;;;;;;;;;;;;;;;18.62;71.18;99947.25;10340870;28;19961;-56
2021/08/03 07:06:32;;;;;;;;;;;;;;;18.61;70.66;99956.34;10320562;28;20465;-55
2021/08/03 07:11:38;;;;;;;;;;;;;;;18.68;69.88;99953.78;10345107;28;19925;-57
2021/08/03 07:16:40;;;;;;;;;;;;;;;18.70;70.19;99954.41;10340490;28;20702;-53
2021/08/03 07:21:42;;;;;;;;;;;;;;;18.80;70.04;99951.47;10343805;28;19928;-55
2021/08/03 07:26:44;;;;;;;;;;;;;;;18.84;69.95;99950.06;10340458;28;19975;-57
2021/08/03 07:31:46;;;;;;;;;;;;;;;19.03;69.31;99965.72;10344472;28;20361;-60
2021/08/03 07:36:48;;;;;;;;;;;;;;;19.31;68.22;99961.53;10338089;28;19979;-57
2021/08/03 07:41:50;;;;;;;;;;;;;;;19.39;67.90;99962.25;10342537;28;20067;-53
2021/08/03 07:46:52;;;;;;;;;;;;;;;19.40;67.26;99961.22;10341210;28;20639;-53
2021/08/03 07:51:53;;;;;;;;;;;;;;;19.46;67.01;99959.66;10339745;28;19933;-55
2021/08/03 07:56:55;;;;;;;;;;;;;;;19.43;67.32;99966.25;10337215;28;19937;-57
2021/08/03 08:01:57;;;;;;;;;;;;;;;19.59;66.63;99953.56;10336042;28;19953;-59
2021/08/03 08:06:58;;;;;;;;;;;;;;;19.85;66.10;99952.25;10340040;28;19968;-55
2021/08/03 08:12:00;;;;;;;;;;;;;;;19.92;65.84;99947.72;10340044;28;20419;-56
2021/08/03 08:17:01;;;;;;;;;;;;;;;20.05;66.00;99955.13;10339724;28;20097;-60
2021/08/03 08:22:03;;;;;;;;;;;;;;;19.90;66.42;99947.09;10342149;28;20684;-59
2021/08/03 08:27:04;;;;;;;;;;;;;;;19.73;67.03;99944.59;10342508;28;20022;-55
2021/08/03 08:32:06;;;;;;;;;;;;;;;19.21;68.92;99954.53;10341112;28;19973;-55
2021/08/03 08:37:12;;;;;;;;;;;;;;;18.84;71.19;99956.31;10338196;28;19939;-56
2021/08/03 08:42:15;;;;;;;;;;;;;;;18.47;75.85;99951.78;10347052;28;20505;-55
2021/08/03 08:47:17;;;;;;;;;;;;;;;18.19;77.89;99958.59;10350485;28;20072;-56
2021/08/03 08:52:18;;;;;;;;;;;;;;;18.02;81.30;99951.63;10346801;28;20375;-57
2021/08/03 08:57:20;;;;;;;;;;;;;;;18.14;80.28;99943.97;10332635;28;20218;-53
2021/08/03 09:02:38;;;;;;;;;;;;;;;18.23;79.51;99942.06;10346439;28;20079;-56
2021/08/03 09:07:50;;;;;;;;;;;;;;;18.34;78.43;99947.00;10332031;28;19929;-58
2021/08/03 09:13:02;;;;;;;;;;;;;;;18.28;79.15;99945.88;10350683;28;19925;-57
2021/08/03 09:18:08;;;;;;;;;;;;;;;18.36;78.71;99935.03;10348540;28;20012;-56
2021/08/03 09:23:10;;;;;;;;;;;;;;;18.28;80.02;99951.25;10341310;28;19971;-56
2021/08/03 09:28:11;;;;;;;;;;;;;;;18.28;80.30;99953.94;10353130;28;19930;-56
2021/08/03 09:33:20;;;;;;;;;;;;;;;18.36;79.56;99961.16;10342949;28;20035;-57
2021/08/03 09:38:22;;;;;;;;;;;;;;;18.53;79.70;99959.97;10348536;28;20021;-60
2021/08/03 09:43:27;;;;;;;;;;;;;;;18.59;78.72;99966.50;10348849;28;19968;-56
2021/08/03 09:48:30;;;;;;;;;;;;;;;18.94;77.15;99958.75;10333151;28;19984;-57
2021/08/03 09:53:40;;;;;;;;;;;;;;;19.22;75.27;99950.84;10342966;28;20677;-56
2021/08/03 09:58:48;;;;;;;;;;;;;;;19.42;74.45;99952.94;10340792;28;19948;-53
2021/08/03 10:03:51;;;;;;;;;;;;;;;19.73;73.06;99944.59;10345942;28;20015;-53
2021/08/03 10:08:53;;;;;;;;;;;;;;;19.72;71.80;99945.63;10337975;28;20010;-56
2021/08/03 10:13:55;;;;;;;;;;;;;;;19.46;72.75;99934.53;10333831;28;20790;-54
2021/08/03 10:18:58;;;;;;;;;;;;;;;19.23;72.43;99932.78;10328914;28;19925;-56
2021/08/03 10:24:01;;;;;;;;;;;;;;;18.90;73.09;99917.00;10327789;28;20348;-55
2021/08/03 10:29:21;;;;;;;;;;;;;;;18.88;72.64;99906.38;10345707;28;19968;-58
2021/08/03 10:34:42;;;;;;;;;;;;;;;19.07;71.67;99907.69;10345422;28;20578;-53
2021/08/03 10:39:56;;;;;;;;;;;;;;;19.26;71.48;99902.75;10344168;28;20028;-55
2021/08/03 10:45:00;;;;;;;;;;;;;;;19.39;69.33;99904.75;10342195;28;20337;-59
2021/08/03 10:50:12;;;;;;;;;;;;;;;19.94;66.35;99902.47;10344698;28;20070;-53
2021/08/03 10:55:32;;;;;;;;;;;;;;;20.93;64.45;99898.84;10344411;28;20011;-52
2021/08/03 11:00:40;;;;;;;;;;;;;;;21.19;60.95;99890.00;10338298;28;20020;-55
2021/08/03 11:05:42;;;;;;;;;;;;;;;21.10;61.66;99888.53;10340366;28;19925;-58
2021/08/03 11:10:54;;;;;;;;;;;;;;;20.40;60.56;99879.53;10321049;28;19972;-57
2021/08/03 11:15:56;;;;;;;;;;;;;;;20.90;59.93;99868.69;10343288;28;19960;-55
2021/08/03 11:21:01;;;;;;;;;;;;;;;20.65;58.30;99871.81;10336499;28;19925;-55
2021/08/03 11:26:03;;;;;;;;;;;;;;;20.24;60.93;99873.41;10316825;28;19932;-58
2021/08/03 11:31:05;;;;;;;;;;;;;;;19.98;61.23;99870.50;10322426;28;20023;-52
2021/08/03 11:36:09;;;;;;;;;;;;;;;20.16;60.66;99868.13;10335017;28;20071;-54
2021/08/03 11:41:11;;;;;;;;;;;;;;;20.52;58.80;99860.91;10338201;28;19991;-55
2021/08/03 11:46:12;;;;;;;;;;;;;;;20.82;58.49;99854.28;10339080;28;20020;-59
2021/08/03 11:51:14;;;;;;;;;;;;;;;20.95;59.32;99849.97;10335215;28;19925;-54
2021/08/03 11:56:28;;;;;;;;;;;;;;;20.94;59.35;99849.13;10340117;28;20008;-57
2021/08/03 12:01:48;;;;;;;;;;;;;;;20.78;58.76;99834.06;10339188;28;20063;-57
2021/08/03 12:06:51;;;;;;;;;;;;;;;21.04;58.83;99832.50;10339860;28;20182;-58
2021/08/03 12:12:15;;;;;;;;;;;;;;;20.84;59.11;99825.16;10337280;28;20510;-55
2021/08/03 12:17:26;;;;;;;;;;;;;;;21.38;58.73;99822.63;10340248;28;20032;-58
2021/08/03 12:22:28;;;;;;;;;;;;;;;21.92;56.18;99818.13;10341379;28;19957;-57
2021/08/03 12:27:36;;;;;;;;;;;;;;;22.07;56.20;99815.22;10341833;28;19925;-53
2021/08/03 12:32:39;;;;;;;;;;;;;;;21.82;56.00;99807.69;10339204;28;20406;-56
2021/08/03 12:37:41;;;;;;;;;;;;;;;21.50;56.74;99804.75;10344352;28;19932;-54
2021/08/03 12:42:47;;;;;;;;;;;;;;;22.00;55.81;99803.53;10346240;28;20083;-55
2021/08/03 12:47:52;;;;;;;;;;;;;;;22.24;54.13;99800.16;10346459;28;19937;-56
2021/08/03 12:52:55;;;;;;;;;;;;;;;22.16;52.64;99803.09;10343729;28;19925;-55
2021/08/03 12:57:58;;;;;;;;;;;;;;;21.60;54.42;99784.56;10341492;28;19960;-54
2021/08/03 13:03:00;;;;;;;;;;;;;;;21.26;55.80;99770.97;10341371;28;20055;-56
2021/08/03 13:08:02;;;;;;;;;;;;;;;20.82;57.22;99788.50;10338724;28;19929;-53
2021/08/03 13:13:04;;;;;;;;;;;;;;;20.95;57.24;99787.72;10335500;28;19941;-53
2021/08/03 13:18:06;;;;;;;;;;;;;;;21.03;56.11;99792.94;10344035;28;20508;-54
2021/08/03 13:23:07;;;;;;;;;;;;;;;21.01;55.24;99784.22;10341866;28;20024;-53
2021/08/03 13:28:09;;;;;;;;;;;;;;;21.83;54.28;99787.72;10338332;28;19933;-58
2021/08/03 13:33:10;;;;;;;;;;;;;;;22.69;51.46;99785.88;10329410;28;20075;-55
2021/08/03 13:38:12;;;;;;;;;;;;;;;22.62;52.40;99778.84;10351141;28;20322;-56
2021/08/03 13:43:13;;;;;;;;;;;;;;;22.12;53.38;99774.75;10348327;28;20559;-53
2021/08/03 13:48:15;;;;;;;;;;;;;;;22.38;52.76;99767.63;10347061;28;19934;-53
2021/08/03 13:53:16;;;;;;;;;;;;;;;22.57;53.12;99758.59;10336592;28;19937;-52
2021/08/03 13:58:17;;;;;;;;;;;;;;;22.88;52.51;99762.44;10339925;28;20024;-55
2021/08/03 14:03:19;;;;;;;;;;;;;;;23.01;51.19;99760.72;10343104;28;20485;-56
2021/08/03 14:08:26;;;;;;;;;;;;;;;23.21;50.59;99750.59;10336765;28;19948;-57
2021/08/03 14:13:27;;;;;;;;;;;;;;;23.09;51.12;99757.75;10320770;28;19941;-54
2021/08/03 14:18:29;;;;;;;;;;;;;;;23.07;50.80;99748.97;10345489;28;19957;-58
2021/08/03 14:23:30;;;;;;;;;;;;;;;22.76;51.84;99750.63;10342175;28;19932;-56
2021/08/03 14:28:31;;;;;;;;;;;;;;;22.43;51.67;99754.28;10342215;28;20048;-57
2021/08/03 14:33:33;;;;;;;;;;;;;;;22.36;50.70;99742.63;10340408;28;20517;-56
2021/08/03 14:38:34;;;;;;;;;;;;;;;22.38;50.76;99735.09;10342706;28;20425;-60
2021/08/03 14:43:35;;;;;;;;;;;;;;;22.85;50.61;99733.03;10345034;28;19935;-53
2021/08/03 14:48:37;;;;;;;;;;;;;;;22.97;48.98;99730.47;10345201;28;20016;-57
2021/08/03 14:53:38;;;;;;;;;;;;;;;23.06;49.86;99715.59;10343923;28;20019;-52
2021/08/03 14:58:39;;;;;;;;;;;;;;;23.03;49.54;99726.03;10346598;28;20018;-58
2021/08/03 15:03:41;;;;;;;;;;;;;;;22.95;49.68;99713.56;10340643;28;20566;-61
2021/08/03 15:08:43;;;;;;;;;;;;;;;23.10;48.71;99706.00;10343578;28;19962;-56
2021/08/03 15:13:45;;;;;;;;;;;;;;;23.00;49.18;99699.31;10342852;28;20660;-56
2021/08/03 15:18:48;;;;;;;;;;;;;;;22.85;49.26;99705.91;10342959;28;20405;-59
2021/08/03 15:23:50;;;;;;;;;;;;;;;22.64;49.78;99685.34;10341694;28;20019;-55
2021/08/03 15:28:51;;;;;;;;;;;;;;;22.42;49.73;99704.63;10336615;28;20020;-56
2021/08/03 15:33:52;;;;;;;;;;;;;;;22.07;54.07;99702.22;10348155;28;20415;-54
2021/08/03 15:38:54;;;;;;;;;;;;;;;22.21;54.90;99691.34;10338243;28;19968;-57
2021/08/03 15:43:56;;;;;;;;;;;;;;;22.33;54.54;99691.53;10342871;28;20023;-55
2021/08/03 15:48:57;;;;;;;;;;;;;;;22.32;54.19;99698.00;10343605;28;19968;-54
2021/08/03 15:53:58;;;;;;;;;;;;;;;22.27;53.83;99695.09;10338975;28;19992;-57
2021/08/03 15:59:00;;;;;;;;;;;;;;;22.27;54.56;99695.09;10342371;28;20019;-54
2021/08/03 16:04:01;;;;;;;;;;;;;;;22.12;54.17;99682.59;10341936;28;20038;-58
2021/08/03 16:09:03;;;;;;;;;;;;;;;21.84;53.94;99685.59;10337816;28;19933;-55
2021/08/03 16:14:04;;;;;;;;;;;;;;;21.67;54.80;99685.19;10336087;28;20025;-57
2021/08/03 16:19:06;;;;;;;;;;;;;;;21.57;55.87;99682.91;10336877;28;20005;-54
2021/08/03 16:24:07;;;;;;;;;;;;;;;21.43;55.44;99690.19;10342475;28;19953;-57
2021/08/03 16:29:08;;;;;;;;;;;;;;;21.21;55.39;99696.84;10344500;28;20357;-56
2021/08/03 16:34:11;;;;;;;;;;;;;;;21.24;56.43;99691.00;10344347;28;20016;-55
2021/08/03 16:39:12;;;;;;;;;;;;;;;21.09;57.19;99685.78;10333290;28;20020;-54
2021/08/03 16:44:14;;;;;;;;;;;;;;;20.89;58.04;99693.88;10340457;28;19929;-54
2021/08/03 16:49:17;;;;;;;;;;;;;;;20.76;59.06;99686.53;10327907;28;19960;-58
2021/08/03 16:54:38;;;;;;;;;;;;;;;20.60;58.79;99696.66;10344707;28;19925;-56
2021/08/03 16:59:39;;;;;;;;;;;;;;;20.46;57.38;99695.78;10341523;28;19980;-56
2021/08/03 17:04:56;;;;;;;;;;;;;;;20.55;57.28;99699.16;10342610;28;19964;-57
2021/08/03 17:10:00;;;;;;;;;;;;;;;20.60;57.13;99690.44;10344861;28;20424;-55
2021/08/03 17:15:02;;;;;;;;;;;;;;;20.62;57.02;99718.09;10326850;28;19945;-54
2021/08/03 17:20:14;;;;;;;;;;;;;;;20.58;57.50;99708.72;10330372;28;19983;-55
2021/08/03 17:25:17;;;;;;;;;;;;;;;20.47;58.85;99713.66;10352601;28;19933;-58
2021/08/03 17:30:18;;;;;;;;;;;;;;;20.27;59.64;99707.34;10350729;28;19968;-57
2021/08/03 17:35:20;;;;;;;;;;;;;;;19.97;62.76;99729.19;10351793;28;20022;-58
2021/08/03 17:40:21;;;;;;;;;;;;;;;19.93;66.74;99731.44;10342044;28;19969;-56
2021/08/03 17:45:22;;;;;;;;;;;;;;;19.76;69.77;99728.19;10341309;28;20594;-57
2021/08/03 17:50:25;;;;;;;;;;;;;;;19.68;69.30;99735.59;10345210;28;19925;-56
2021/08/03 17:55:27;;;;;;;;;;;;;;;19.37;70.31;99734.94;10345533;28;20747;-57
2021/08/03 18:00:29;;;;;;;;;;;;;;;19.32;75.03;99755.41;10343618;28;20020;-56
2021/08/03 18:05:31;;;;;;;;;;;;;;;19.15;74.51;99762.94;10332039;28;19933;-56
2021/08/03 18:10:33;;;;;;;;;;;;;;;19.12;77.44;99766.84;10346736;28;19929;-56
2021/08/03 18:15:35;;;;;;;;;;;;;;;19.27;76.91;99768.66;10331849;28;19929;-55
2021/08/03 18:20:36;;;;;;;;;;;;;;;19.22;76.89;99769.25;10325705;28;19961;-58
2021/08/03 18:25:46;;;;;;;;;;;;;;;19.24;75.23;99770.69;10342431;28;19940;-56
2021/08/03 18:30:48;;;;;;;;;;;;;;;19.15;75.96;99773.72;10339173;28;19972;-56
2021/08/03 18:35:55;;;;;;;;;;;;;;;19.08;76.72;99769.09;10335143;28;19934;-56
2021/08/03 18:40:57;;;;;;;;;;;;;;;19.04;77.60;99777.78;10338945;28;19933;-58
2021/08/03 18:46:00;;;;;;;;;;;;;;;18.96;76.91;99786.81;10343783;28;19988;-56
2021/08/03 18:51:02;;;;;;;;;;;;;;;18.79;76.75;99788.84;10340724;28;19934;-57
2021/08/03 18:56:04;;;;;;;;;;;;;;;18.65;76.87;99779.75;10345027;28;19992;-56
2021/08/03 19:01:07;;;;;;;;;;;;;;;18.71;78.24;99788.97;10320335;28;20052;-56
2021/08/03 19:06:33;;;;;;;;;;;;;;;18.68;78.61;99790.16;10344110;28;19975;-56
2021/08/03 19:11:35;;;;;;;;;;;;;;;18.65;77.74;99798.63;10344283;28;19961;-55
2021/08/03 19:16:38;;;;;;;;;;;;;;;18.68;79.44;99800.94;10324184;28;20040;-56
2021/08/03 19:21:49;;;;;;;;;;;;;;;18.64;78.52;99799.63;10338915;28;19932;-56
2021/08/03 19:26:52;;;;;;;;;;;;;;;18.59;76.86;99807.47;10335974;28;20914;-56
2021/08/03 19:31:53;;;;;;;;;;;;;;;18.58;77.65;99800.38;10338215;28;20018;-56
2021/08/03 19:36:54;;;;;;;;;;;;;;;18.59;78.17;99818.25;10330483;28;19988;-56
2021/08/03 19:41:56;;;;;;;;;;;;;;;18.60;78.95;99814.53;10347612;28;26719;-54
2021/08/03 19:47:01;;;;;;;;;;;;;;;18.59;78.91;99817.41;10337177;28;20513;-55
2021/08/03 19:52:04;;;;;;;;;;;;;;;18.52;77.92;99815.44;10327697;28;20008;-54
2021/08/03 19:57:06;;;;;;;;;;;;;;;18.54;78.75;99796.41;10340121;28;19990;-55
2021/08/03 20:02:07;;;;;;;;;;;;;;;18.45;77.14;99808.28;10335294;28;19965;-53
2021/08/03 20:07:10;;;;;;;;;;;;;;;18.32;77.49;99817.03;10340827;28;19929;-56
2021/08/03 20:12:12;;;;;;;;;;;;;;;18.29;77.68;99829.00;10334202;28;19999;-55
2021/08/03 20:17:15;;;;;;;;;;;;;;;18.11;78.54;99831.22;10336555;28;19929;-55
2021/08/03 20:22:16;;;;;;;;;;;;;;;18.18;79.50;99827.59;10334707;28;19968;-57
2021/08/03 20:27:24;;;;;;;;;;;;;;;18.04;77.34;99830.28;10340122;28;20462;-55
2021/08/03 20:32:27;;;;;;;;;;;;;;;18.01;79.04;99828.78;10342865;28;19976;-55
2021/08/03 20:37:31;;;;;;;;;;;;;;;17.95;78.89;99821.44;10339541;28;19933;-55
2021/08/03 20:42:33;;;;;;;;;;;;;;;18.01;79.09;99832.31;10330340;28;19973;-55
2021/08/03 20:47:37;;;;;;;;;;;;;;;18.09;79.55;99838.63;10370734;28;19976;-55
2021/08/03 20:52:40;;;;;;;;;;;;;;;17.97;78.51;99849.84;10370442;28;19953;-53
2021/08/03 20:57:42;;;;;;;;;;;;;;;17.96;79.41;99840.09;10364080;28;19926;-55
2021/08/03 21:02:44;;;;;;;;;;;;;;;18.00;78.58;99838.72;10376945;28;20479;-54
2021/08/03 21:07:48;;;;;;;;;;;;;;;17.94;79.69;99843.97;10370836;28;20150;-53
2021/08/03 21:12:49;;;;;;;;;;;;;;;17.94;80.07;99861.00;10372372;28;19925;-54
2021/08/03 21:17:50;;;;;;;;;;;;;;;17.67;79.72;99862.34;10371334;28;20486;-54
2021/08/03 21:22:52;;;;;;;;;;;;;;;17.54;80.10;99865.63;10372243;28;20507;-54
2021/08/03 21:27:53;;;;;;;;;;;;;;;17.55;81.33;99869.13;10374357;28;19964;-54
2021/08/03 21:32:55;;;;;;;;;;;;;;;17.60;80.14;99872.16;10372139;28;19957;-56
2021/08/03 21:37:56;;;;;;;;;;;;;;;17.52;81.30;99867.66;10366419;28;24893;-55
2021/08/03 21:42:58;;;;;;;;;;;;;;;17.59;81.11;99860.53;10361226;28;19959;-55
2021/08/03 21:48:03;;;;;;;;;;;;;;;17.66;81.08;99868.75;10369559;28;20525;-54
2021/08/03 21:53:04;;;;;;;;;;;;;;;17.68;80.75;99864.00;10362501;28;20022;-54
2021/08/03 21:58:06;;;;;;;;;;;;;;;17.71;81.04;99862.81;10370476;28;19929;-55
2021/08/03 22:03:08;;;;;;;;;;;;;;;17.73;81.46;99868.84;10372505;28;19972;-56
2021/08/03 22:08:10;;;;;;;;;;;;;;;17.69;81.63;99865.69;10364166;28;19980;-54
2021/08/03 22:13:11;;;;;;;;;;;;;;;17.66;81.76;99863.34;10364327;28;20517;-57
2021/08/03 22:18:12;;;;;;;;;;;;;;;17.61;82.27;99863.91;10363437;28;19980;-54
2021/08/03 22:23:14;;;;;;;;;;;;;;;17.57;82.18;99862.56;10371989;28;19960;-56
2021/08/03 22:28:15;;;;;;;;;;;;;;;17.60;82.45;99862.22;10375434;28;19968;-52
2021/08/03 22:33:16;;;;;;;;;;;;;;;17.60;82.65;99862.22;10369762;28;20040;-53
2021/08/03 22:38:17;;;;;;;;;;;;;;;17.65;82.61;99864.38;10361469;28;20020;-54
2021/08/03 22:43:19;;;;;;;;;;;;;;;17.70;83.01;99861.13;10358016;28;20457;-56
2021/08/03 22:48:20;;;;;;;;;;;;;;;17.76;82.54;99865.78;10357772;28;19965;-51
2021/08/03 22:53:21;;;;;;;;;;;;;;;17.74;82.66;99862.44;10366247;28;19926;-55
2021/08/03 22:58:23;;;;;;;;;;;;;;;17.82;82.56;99870.47;10354324;28;20003;-51
2021/08/03 23:03:24;;;;;;;;;;;;;;;17.87;82.06;99870.78;10361876;28;20023;-54
2021/08/03 23:08:25;;;;;;;;;;;;;;;17.79;81.80;99870.81;10355037;28;19992;-55
2021/08/03 23:13:27;;;;;;;;;;;;;;;17.67;82.76;99876.63;10364521;28;19929;-56
2021/08/03 23:18:28;;;;;;;;;;;;;;;17.67;83.18;99873.13;10364531;28;20558;-57
2021/08/03 23:23:32;;;;;;;;;;;;;;;17.58;83.02;99874.16;10365878;28;19925;-55
2021/08/03 23:28:34;;;;;;;;;;;;;;;17.58;83.14;99876.84;10371710;28;19952;-56
2021/08/03 23:33:35;;;;;;;;;;;;;;;17.49;83.52;99876.09;10363591;28;19971;-54
2021/08/03 23:38:36;;;;;;;;;;;;;;;17.43;83.72;99877.63;10360709;28;19964;-54
2021/08/03 23:43:38;;;;;;;;;;;;;;;17.42;83.87;99873.25;10373315;28;19933;-57
2021/08/03 23:48:39;;;;;;;;;;;;;;;17.36;83.88;99876.66;10359859;28;20015;-54
2021/08/03 23:53:41;;;;;;;;;;;;;;;17.36;83.83;99873.16;10361253;28;19980;-56
2021/08/03 23:58:42;;;;;;;;;;;;;;;17.19;84.70;99878.59;10364443;28;20386;-55
